ADDS METAR Data INFO
IDs: Format: Raw Decoded Include TAF

Data at: 0438 UTC 24 Apr 2018

KDHT 240353Z AUTO 14010KT 10SM CLR 14/07 A3005 RMK AO2 SLP144 T01390067
KDHT 240253Z AUTO 13011KT 10SM CLR 16/07 A3004 RMK AO2 SLP141 T01560072 53003
KDHT 240153Z AUTO 11009KT 10SM CLR 16/08 A3002 RMK AO2 SLP138 T01610078
KDHT 240053Z AUTO 10010KT 10SM CLR 21/07 A3001 RMK AO2 SLP135 T02110067
KDHT 232353Z AUTO 13006KT 10SM CLR 22/06 A3003 RMK AO2 SLP141 T02220056 10239 20161 56013
KDHT 232253Z AUTO 16010KT 10SM CLR 23/04 A3003 RMK AO2 SLP140 T02280044
KDHT 232153Z AUTO 16016G19KT 10SM CLR 23/04 A3003 RMK AO2 SLP139 T02330044
KDHT 232053Z AUTO 17012KT 10SM CLR 22/06 A3007 RMK AO2 SLP154 T02220056 56027
KDHT 231953Z AUTO 17011G19KT 10SM CLR 21/05 A3010 RMK AO2 SLP168 T02060050
KDHT 231853Z AUTO 16007G19KT 10SM CLR 18/06 A3013 RMK AO2 SLP179 T01830056
KDHT 231753Z AUTO 17010G19KT 10SM CLR 16/05 A3016 RMK AO2 SLP191 T01610050 10161 20017 58012
KDHT 231653Z AUTO 18010KT 10SM CLR 14/05 A3018 RMK AO2 SLP201 T01440050
KDHT 231553Z AUTO 17009KT 10SM CLR 13/04 A3019 RMK AO2 SLP205 T01280039
KDHT 231453Z AUTO 17012KT 10SM CLR 11/04 A3020 RMK AO2 SLP209 T01060044 51003
KDHT 231353Z AUTO 17003KT 5SM HZ CLR 08/05 A3020 RMK AO2 SLP210 T00780050
KDHT 231253Z AUTO 29003KT 5SM BR CLR 03/02 A3020 RMK AO2 SLP214 T00330022
KDHT 231153Z AUTO 30004KT 6SM BR CLR 02/02 A3019 RMK AO2 SLP209 T00220017 10056 20017 55000
KDHT 231053Z AUTO 31004KT 7SM CLR 03/02 A3019 RMK AO2 SLP208 T00280017
KDHT 230953Z AUTO 30003KT 7SM CLR 03/02 A3019 RMK AO2 SLP210 T00280017
KDHT 230853Z AUTO 32005KT 7SM CLR 03/02 A3019 RMK AO2 SLP211 T00330022 58001
KDHT 230753Z AUTO 34005KT 8SM CLR 04/03 A3020 RMK AO2 SLP215 T00390028
KDHT 230653Z AUTO 32004KT 7SM CLR 04/03 A3020 RMK AO2 SLP217 T00390028
KDHT 230553Z AUTO 31004KT 8SM CLR 06/04 A3019 RMK AO2 SLP214 T00560039 10139 20039 401440033 51009
KDHT 230453Z AUTO 00000KT 10SM CLR 04/03 A3019 RMK AO2 SLP213 T00390028
KDHT 230353Z AUTO 08006KT 10SM CLR 07/04 A3018 RMK AO2 SLP209 T00720039
KDHT 230253Z AUTO 08006KT 10SM CLR 08/04 A3016 RMK AO2 SLP202 T00830044 53006
KDHT 230153Z AUTO 09006KT 10SM CLR 10/04 A3016 RMK AO2 SLP199 T01000044
KDHT 230053Z AUTO 10008KT 10SM CLR 13/04 A3014 RMK AO2 SLP191 T01280044
KDHT 222353Z AUTO 08007KT 10SM CLR 14/04 A3015 RMK AO2 SLP190 T01390044 10144 20089 56005
KDHT 222253Z AUTO 11006KT 10SM CLR 14/04 A3015 RMK AO2 SLP190 T01390044
KDHT 222153Z AUTO 08009KT 10SM SCT036 13/04 A3014 RMK AO2 SLP190 T01330044
KDHT 222053Z AUTO 07007KT 10SM BKN030 12/04 A3016 RMK AO2 SLP198 T01220044 58017
KDHT 221953Z AUTO 10003KT 10SM OVC030 11/04 A3019 RMK AO2 SLP210 T01060039
KDHT 221853Z AUTO 05007KT 10SM BKN022 OVC027 09/04 A3020 RMK AO2 SLP216 T00940044
KDHT 221753Z AUTO 05003KT 10SM OVC020 09/05 A3022 RMK AO2 SLP223 T00890050 10089 20033 57001
KDHT 221720Z AUTO 06003KT 9SM BKN015 OVC022 08/05 A3022 RMK AO2 T00830050
KDHT 221653Z AUTO 04004KT 9SM BKN013 OVC022 09/05 A3022 RMK AO2 SLP224 T00890050
KDHT 221649Z AUTO 04004KT 8SM BKN015 OVC022 08/05 A3022 RMK AO2